sensor_id;sensor_type;location;lat;lon;timestamp;pressure;altitude;pressure_sealevel;temperature;humidity
72677;BME280;60755;51.374;10.662;2022-12-29T00:01:29;96267.84;;;7.32;94.73
72677;BME280;60755;51.374;10.662;2022-12-29T00:03:56;96264.25;;;7.38;94.73
72677;BME280;60755;51.374;10.662;2022-12-29T00:06:26;96279.91;;;7.38;94.63
72677;BME280;60755;51.374;10.662;2022-12-29T00:08:53;96279.72;;;7.39;93.61
72677;BME280;60755;51.374;10.662;2022-12-29T00:11:22;96281.03;;;7.42;94.96
72677;BME280;60755;51.374;10.662;2022-12-29T00:13:49;96287.31;;;7.41;94.34
72677;BME280;60755;51.374;10.662;2022-12-29T00:16:35;96258.56;;;7.41;94.07
72677;BME280;60755;51.374;10.662;2022-12-29T00:19:02;96256.16;;;7.56;93.77
72677;BME280;60755;51.374;10.662;2022-12-29T00:21:31;96244.59;;;7.52;93.22
72677;BME280;60755;51.374;10.662;2022-12-29T00:24:18;96250.84;;;7.51;93.69
72677;BME280;60755;51.374;10.662;2022-12-29T00:27:11;96243.34;;;7.54;93.81
72677;BME280;60755;51.374;10.662;2022-12-29T00:29:56;96247.78;;;7.54;93.90
72677;BME280;60755;51.374;10.662;2022-12-29T00:32:41;96240.50;;;7.56;93.42
72677;BME280;60755;51.374;10.662;2022-12-29T00:35:28;96238.66;;;7.56;93.44
72677;BME280;60755;51.374;10.662;2022-12-29T00:37:59;96236.28;;;7.55;93.39
72677;BME280;60755;51.374;10.662;2022-12-29T00:40:44;96237.63;;;7.57;94.38
72677;BME280;60755;51.374;10.662;2022-12-29T00:43:29;96241.75;;;7.70;93.36
72677;BME280;60755;51.374;10.662;2022-12-29T00:46:18;96241.66;;;7.65;93.30
72677;BME280;60755;51.374;10.662;2022-12-29T00:48:45;96239.03;;;7.65;93.88
72677;BME280;60755;51.374;10.662;2022-12-29T00:51:30;96239.03;;;7.65;94.33
72677;BME280;60755;51.374;10.662;2022-12-29T00:53:59;96235.38;;;7.66;94.51
72677;BME280;60755;51.374;10.662;2022-12-29T00:56:26;96244.09;;;7.72;93.91
72677;BME280;60755;51.374;10.662;2022-12-29T00:58:52;96242.19;;;7.67;94.56
72677;BME280;60755;51.374;10.662;2022-12-29T01:01:19;96242.53;;;7.71;95.80
72677;BME280;60755;51.374;10.662;2022-12-29T01:03:46;96245.06;;;7.66;95.27
72677;BME280;60755;51.374;10.662;2022-12-29T01:06:14;96247.25;;;7.74;95.53
72677;BME280;60755;51.374;10.662;2022-12-29T01:08:41;96249.81;;;7.69;94.76
72677;BME280;60755;51.374;10.662;2022-12-29T01:11:10;96249.16;;;7.78;94.54
72677;BME280;60755;51.374;10.662;2022-12-29T01:13:36;96250.91;;;7.73;94.78
72677;BME280;60755;51.374;10.662;2022-12-29T01:16:04;96245.97;;;7.76;95.20
72677;BME280;60755;51.374;10.662;2022-12-29T01:18:31;96247.69;;;7.66;96.59
72677;BME280;60755;51.374;10.662;2022-12-29T01:21:00;96239.84;;;7.66;95.85
72677;BME280;60755;51.374;10.662;2022-12-29T01:23:27;96237.31;;;7.71;96.73
72677;BME280;60755;51.374;10.662;2022-12-29T01:25:54;96237.84;;;7.73;96.59
72677;BME280;60755;51.374;10.662;2022-12-29T01:28:24;96226.06;;;7.70;96.61
72677;BME280;60755;51.374;10.662;2022-12-29T01:30:51;96231.28;;;7.70;95.90
72677;BME280;60755;51.374;10.662;2022-12-29T01:33:18;96219.28;;;7.74;95.41
72677;BME280;60755;51.374;10.662;2022-12-29T01:35:45;96228.97;;;7.74;95.20
72677;BME280;60755;51.374;10.662;2022-12-29T01:38:12;96223.81;;;7.79;95.46
72677;BME280;60755;51.374;10.662;2022-12-29T01:40:46;96221.19;;;7.79;96.42
72677;BME280;60755;51.374;10.662;2022-12-29T01:43:13;96216.97;;;7.78;95.65
72677;BME280;60755;51.374;10.662;2022-12-29T01:45:45;96227.69;;;7.76;95.78
72677;BME280;60755;51.374;10.662;2022-12-29T01:48:16;96221.19;;;7.79;95.95
72677;BME280;60755;51.374;10.662;2022-12-29T01:50:49;96223.97;;;7.72;98.55
72677;BME280;60755;51.374;10.662;2022-12-29T01:53:21;96220.81;;;7.70;97.88
72677;BME280;60755;51.374;10.662;2022-12-29T01:55:54;96220.31;;;7.73;99.09
72677;BME280;60755;51.374;10.662;2022-12-29T01:58:29;96210.66;;;7.74;97.92
72677;BME280;60755;51.374;10.662;2022-12-29T02:01:00;96201.28;;;7.78;97.69
72677;BME280;60755;51.374;10.662;2022-12-29T02:03:28;96210.41;;;7.75;98.57
72677;BME280;60755;51.374;10.662;2022-12-29T02:06:02;96200.50;;;7.77;98.13
72677;BME280;60755;51.374;10.662;2022-12-29T02:08:31;96198.75;;;7.83;97.14
72677;BME280;60755;51.374;10.662;2022-12-29T02:11:00;96185.97;;;7.87;98.25
72677;BME280;60755;51.374;10.662;2022-12-29T02:13:28;96190.22;;;7.93;98.33
72677;BME280;60755;51.374;10.662;2022-12-29T02:16:06;96177.03;;;7.82;97.49
72677;BME280;60755;51.374;10.662;2022-12-29T02:18:44;96177.34;;;7.86;97.09
72677;BME280;60755;51.374;10.662;2022-12-29T02:21:37;96172.91;;;7.87;98.81
72677;BME280;60755;51.374;10.662;2022-12-29T02:24:41;96188.66;;;7.92;97.39
72677;BME280;60755;51.374;10.662;2022-12-29T02:27:37;96192.00;;;7.87;99.39
72677;BME280;60755;51.374;10.662;2022-12-29T02:30:16;96193.63;;;7.93;98.44
72677;BME280;60755;51.374;10.662;2022-12-29T02:32:52;96199.19;;;7.97;97.66
72677;BME280;60755;51.374;10.662;2022-12-29T02:35:27;96188.72;;;7.97;97.95
72677;BME280;60755;51.374;10.662;2022-12-29T02:38:03;96182.19;;;7.99;97.84
72677;BME280;60755;51.374;10.662;2022-12-29T02:40:39;96195.03;;;8.01;98.87
72677;BME280;60755;51.374;10.662;2022-12-29T02:43:19;96187.69;;;7.98;98.29
72677;BME280;60755;51.374;10.662;2022-12-29T02:45:54;96178.00;;;7.98;98.25
72677;BME280;60755;51.374;10.662;2022-12-29T02:48:28;96181.13;;;7.95;99.33
72677;BME280;60755;51.374;10.662;2022-12-29T02:51:02;96161.09;;;8.06;97.22
72677;BME280;60755;51.374;10.662;2022-12-29T02:53:32;96151.94;;;8.08;98.58
72677;BME280;60755;51.374;10.662;2022-12-29T02:56:18;96159.75;;;8.03;97.98
72677;BME280;60755;51.374;10.662;2022-12-29T02:58:46;96157.13;;;8.03;98.33
72677;BME280;60755;51.374;10.662;2022-12-29T03:01:23;96156.63;;;8.06;97.64
72677;BME280;60755;51.374;10.662;2022-12-29T03:04:09;96149.03;;;8.05;97.56
72677;BME280;60755;51.374;10.662;2022-12-29T03:06:46;96149.59;;;8.07;97.43
72677;BME280;60755;51.374;10.662;2022-12-29T03:09:21;96158.53;;;8.11;97.73
72677;BME280;60755;51.374;10.662;2022-12-29T03:11:57;96171.66;;;8.16;97.15
72677;BME280;60755;51.374;10.662;2022-12-29T03:14:47;96156.03;;;8.21;96.60
72677;BME280;60755;51.374;10.662;2022-12-29T03:17:40;96156.09;;;8.26;96.11
72677;BME280;60755;51.374;10.662;2022-12-29T03:20:14;96140.59;;;8.25;96.19
72677;BME280;60755;51.374;10.662;2022-12-29T03:22:49;96152.44;;;8.27;96.29
72677;BME280;60755;51.374;10.662;2022-12-29T03:25:25;96145.84;;;8.25;96.95
72677;BME280;60755;51.374;10.662;2022-12-29T03:27:58;96141.69;;;8.29;97.67
72677;BME280;60755;51.374;10.662;2022-12-29T03:30:29;96150.53;;;8.23;97.08
72677;BME280;60755;51.374;10.662;2022-12-29T03:33:00;96165.94;;;8.19;98.48
72677;BME280;60755;51.374;10.662;2022-12-29T03:35:35;96152.63;;;8.21;98.25
72677;BME280;60755;51.374;10.662;2022-12-29T03:38:11;96144.94;;;8.14;99.98
72677;BME280;60755;51.374;10.662;2022-12-29T03:40:42;96141.81;;;8.17;99.49
72677;BME280;60755;51.374;10.662;2022-12-29T03:43:12;96136.13;;;8.20;98.81
72677;BME280;60755;51.374;10.662;2022-12-29T03:45:39;96132.53;;;8.26;96.98
72677;BME280;60755;51.374;10.662;2022-12-29T03:48:07;96125.16;;;8.23;97.75
72677;BME280;60755;51.374;10.662;2022-12-29T03:50:39;96131.59;;;8.37;96.38
72677;BME280;60755;51.374;10.662;2022-12-29T03:53:06;96127.06;;;8.33;96.78
72677;BME280;60755;51.374;10.662;2022-12-29T03:55:34;96126.00;;;8.29;96.74
72677;BME280;60755;51.374;10.662;2022-12-29T03:58:01;96122.63;;;8.33;97.15
72677;BME280;60755;51.374;10.662;2022-12-29T04:00:47;96132.09;;;8.34;96.53
72677;BME280;60755;51.374;10.662;2022-12-29T04:03:15;96126.38;;;8.37;95.53
72677;BME280;60755;51.374;10.662;2022-12-29T04:05:43;96129.16;;;8.31;97.01
72677;BME280;60755;51.374;10.662;2022-12-29T04:08:11;96133.84;;;8.29;96.33
72677;BME280;60755;51.374;10.662;2022-12-29T04:10:38;96124.78;;;8.36;95.95
72677;BME280;60755;51.374;10.662;2022-12-29T04:13:06;96124.72;;;8.31;96.02
72677;BME280;60755;51.374;10.662;2022-12-29T04:15:34;96127.56;;;8.30;96.91
72677;BME280;60755;51.374;10.662;2022-12-29T04:18:01;96122.28;;;8.25;96.34
72677;BME280;60755;51.374;10.662;2022-12-29T04:20:28;96121.25;;;8.26;97.69
72677;BME280;60755;51.374;10.662;2022-12-29T04:23:15;96123.06;;;8.25;98.07
72677;BME280;60755;51.374;10.662;2022-12-29T04:25:44;96119.47;;;8.31;96.42
72677;BME280;60755;51.374;10.662;2022-12-29T04:28:13;96133.09;;;8.33;97.45
72677;BME280;60755;51.374;10.662;2022-12-29T04:30:52;96120.34;;;8.37;97.03
72677;BME280;60755;51.374;10.662;2022-12-29T04:33:25;96124.44;;;8.33;96.87
72677;BME280;60755;51.374;10.662;2022-12-29T04:35:53;96124.44;;;8.33;97.29
72677;BME280;60755;51.374;10.662;2022-12-29T04:38:23;96135.25;;;8.36;96.85
72677;BME280;60755;51.374;10.662;2022-12-29T04:40:51;96132.56;;;8.31;97.15
72677;BME280;60755;51.374;10.662;2022-12-29T04:43:22;96135.81;;;8.38;96.85
72677;BME280;60755;51.374;10.662;2022-12-29T04:46:04;96121.94;;;8.38;97.03
72677;BME280;60755;51.374;10.662;2022-12-29T04:48:41;96130.03;;;8.36;97.51
72677;BME280;60755;51.374;10.662;2022-12-29T04:51:25;96132.56;;;8.31;97.48
72677;BME280;60755;51.374;10.662;2022-12-29T04:53:53;96123.41;;;8.34;98.33
72677;BME280;60755;51.374;10.662;2022-12-29T04:56:22;96121.66;;;8.39;97.40
72677;BME280;60755;51.374;10.662;2022-12-29T04:58:50;96127.41;;;8.36;97.22
72677;BME280;60755;51.374;10.662;2022-12-29T05:01:17;96127.16;;;8.38;98.12
72677;BME280;60755;51.374;10.662;2022-12-29T05:03:44;96124.78;;;8.36;98.08
72677;BME280;60755;51.374;10.662;2022-12-29T05:06:11;96118.19;;;8.34;98.21
72677;BME280;60755;51.374;10.662;2022-12-29T05:08:39;96135.81;;;8.38;98.54
72677;BME280;60755;51.374;10.662;2022-12-29T05:11:07;96126.03;;;8.34;98.43
72677;BME280;60755;51.374;10.662;2022-12-29T05:13:36;96126.53;;;8.31;98.22
72677;BME280;60755;51.374;10.662;2022-12-29T05:16:04;96135.72;;;8.33;99.54
72677;BME280;60755;51.374;10.662;2022-12-29T05:18:31;96143.56;;;8.33;98.57
72677;BME280;60755;51.374;10.662;2022-12-29T05:20:59;96131.88;;;8.41;98.73
72677;BME280;60755;51.374;10.662;2022-12-29T05:23:27;96150.28;;;8.46;99.18
72677;BME280;60755;51.374;10.662;2022-12-29T05:26:04;96145.28;;;8.45;97.71
72677;BME280;60755;51.374;10.662;2022-12-29T05:29:02;96144.31;;;8.56;97.27
72677;BME280;60755;51.374;10.662;2022-12-29T05:31:30;96138.63;;;8.64;97.37
72677;BME280;60755;51.374;10.662;2022-12-29T05:33:57;96125.25;;;8.60;97.98
72677;BME280;60755;51.374;10.662;2022-12-29T05:36:25;96140.72;;;8.62;96.64
72677;BME280;60755;51.374;10.662;2022-12-29T05:38:57;96144.19;;;8.67;98.09
72677;BME280;60755;51.374;10.662;2022-12-29T05:41:24;96120.31;;;8.64;97.65
72677;BME280;60755;51.374;10.662;2022-12-29T05:44:12;96122.41;;;8.62;97.73
72677;BME280;60755;51.374;10.662;2022-12-29T05:46:57;96106.09;;;8.55;98.49
72677;BME280;60755;51.374;10.662;2022-12-29T05:49:39;96113.44;;;8.58;98.38
72677;BME280;60755;51.374;10.662;2022-12-29T05:52:20;96108.19;;;8.58;99.15
72677;BME280;60755;51.374;10.662;2022-12-29T05:54:48;96115.59;;;8.61;97.80
72677;BME280;60755;51.374;10.662;2022-12-29T05:57:18;96108.56;;;8.66;97.03
72677;BME280;60755;51.374;10.662;2022-12-29T05:59:55;96109.84;;;8.64;96.86
72677;BME280;60755;51.374;10.662;2022-12-29T06:02:22;96105.13;;;8.66;96.78
72677;BME280;60755;51.374;10.662;2022-12-29T06:04:49;96099.41;;;8.69;97.42
72677;BME280;60755;51.374;10.662;2022-12-29T06:07:17;96095.50;;;8.72;96.45
72677;BME280;60755;51.374;10.662;2022-12-29T06:09:46;96103.09;;;8.73;95.66
72677;BME280;60755;51.374;10.662;2022-12-29T06:12:13;96099.94;;;8.71;95.99
72677;BME280;60755;51.374;10.662;2022-12-29T06:14:43;96108.31;;;8.73;95.21
72677;BME280;60755;51.374;10.662;2022-12-29T06:17:12;96101.25;;;8.68;96.05
72677;BME280;60755;51.374;10.662;2022-12-29T06:19:40;96112.28;;;8.76;95.18
72677;BME280;60755;51.374;10.662;2022-12-29T06:22:07;96110.94;;;8.73;95.77
72677;BME280;60755;51.374;10.662;2022-12-29T06:24:39;96100.25;;;8.75;95.02
72677;BME280;60755;51.374;10.662;2022-12-29T06:27:06;96112.28;;;8.76;96.38
72677;BME280;60755;51.374;10.662;2022-12-29T06:29:34;96115.16;;;8.74;96.00
72677;BME280;60755;51.374;10.662;2022-12-29T06:32:03;96121.53;;;8.83;94.87
72677;BME280;60755;51.374;10.662;2022-12-29T06:34:33;96121.69;;;8.72;95.99
72677;BME280;60755;51.374;10.662;2022-12-29T06:37:01;96133.25;;;8.76;96.48
72677;BME280;60755;51.374;10.662;2022-12-29T06:39:28;96132.47;;;8.75;95.60
72677;BME280;60755;51.374;10.662;2022-12-29T06:42:03;96131.63;;;8.69;96.43
72677;BME280;60755;51.374;10.662;2022-12-29T06:44:45;96134.03;;;8.76;96.14
72677;BME280;60755;51.374;10.662;2022-12-29T06:47:12;96130.63;;;8.76;96.20
72677;BME280;60755;51.374;10.662;2022-12-29T06:49:40;96135.09;;;8.80;95.63
72677;BME280;60755;51.374;10.662;2022-12-29T06:52:08;96118.91;;;8.83;96.15
72677;BME280;60755;51.374;10.662;2022-12-29T06:54:35;96109.91;;;8.74;96.40
72677;BME280;60755;51.374;10.662;2022-12-29T06:57:02;96104.13;;;8.67;97.11
72677;BME280;60755;51.374;10.662;2022-12-29T06:59:29;96114.47;;;8.57;98.29
72677;BME280;60755;51.374;10.662;2022-12-29T07:01:57;96108.47;;;8.56;97.96
72677;BME280;60755;51.374;10.662;2022-12-29T07:04:24;96114.25;;;8.58;97.48
72677;BME280;60755;51.374;10.662;2022-12-29T07:06:52;96118.44;;;8.59;98.20
72677;BME280;60755;51.374;10.662;2022-12-29T07:09:20;96124.28;;;8.66;97.44
72677;BME280;60755;51.374;10.662;2022-12-29T07:11:47;96125.13;;;8.77;95.76
72677;BME280;60755;51.374;10.662;2022-12-29T07:14:15;96127.72;;;8.72;96.76
72677;BME280;60755;51.374;10.662;2022-12-29T07:16:42;96117.28;;;8.77;95.92
72677;BME280;60755;51.374;10.662;2022-12-29T07:19:09;96112.50;;;8.69;96.17
72677;BME280;60755;51.374;10.662;2022-12-29T07:21:36;96120.09;;;8.71;96.21
72677;BME280;60755;51.374;10.662;2022-12-29T07:24:07;96125.88;;;8.73;97.06
72677;BME280;60755;51.374;10.662;2022-12-29T07:26:34;96122.72;;;8.71;97.29
72677;BME280;60755;51.374;10.662;2022-12-29T07:29:02;96138.69;;;8.69;96.46
72677;BME280;60755;51.374;10.662;2022-12-29T07:31:29;96135.63;;;8.77;95.79
72677;BME280;60755;51.374;10.662;2022-12-29T07:33:56;96136.09;;;8.74;96.85
72677;BME280;60755;51.374;10.662;2022-12-29T07:36:23;96130.38;;;8.77;95.67
72677;BME280;60755;51.374;10.662;2022-12-29T07:38:50;96144.78;;;8.80;95.95
72677;BME280;60755;51.374;10.662;2022-12-29T07:41:18;96139.06;;;8.83;96.13
72677;BME280;60755;51.374;10.662;2022-12-29T07:43:46;96149.75;;;8.76;96.41
72677;BME280;60755;51.374;10.662;2022-12-29T07:46:34;96144.06;;;8.89;94.05
72677;BME280;60755;51.374;10.662;2022-12-29T07:49:01;96152.19;;;8.88;93.38
72677;BME280;60755;51.374;10.662;2022-12-29T07:51:28;96146.47;;;8.91;93.51
72677;BME280;60755;51.374;10.662;2022-12-29T07:53:55;96145.13;;;8.88;94.96
72677;BME280;60755;51.374;10.662;2022-12-29T07:56:24;96138.88;;;8.94;93.16
72677;BME280;60755;51.374;10.662;2022-12-29T07:58:50;96133.38;;;8.96;93.00
72677;BME280;60755;51.374;10.662;2022-12-29T08:01:17;96140.97;;;8.92;93.42
72677;BME280;60755;51.374;10.662;2022-12-29T08:03:44;96132.91;;;8.99;93.99
72677;BME280;60755;51.374;10.662;2022-12-29T08:06:12;96135.28;;;9.06;92.52
72677;BME280;60755;51.374;10.662;2022-12-29T08:08:39;96134.75;;;9.04;92.80
72677;BME280;60755;51.374;10.662;2022-12-29T08:11:05;96152.34;;;9.08;93.06
72677;BME280;60755;51.374;10.662;2022-12-29T08:13:34;96148.13;;;9.02;93.17
72677;BME280;60755;51.374;10.662;2022-12-29T08:16:01;96145.75;;;9.01;93.26
72677;BME280;60755;51.374;10.662;2022-12-29T08:18:28;96143.41;;;9.04;92.52
72677;BME280;60755;51.374;10.662;2022-12-29T08:20:55;96143.16;;;9.06;93.30
72677;BME280;60755;51.374;10.662;2022-12-29T08:23:21;96141.09;;;9.13;91.90
72677;BME280;60755;51.374;10.662;2022-12-29T08:25:57;96140.00;;;9.04;92.90
72677;BME280;60755;51.374;10.662;2022-12-29T08:28:24;96146.34;;;9.13;92.28
72677;BME280;60755;51.374;10.662;2022-12-29T08:30:52;96135.84;;;9.08;92.55
72677;BME280;60755;51.374;10.662;2022-12-29T08:33:19;96137.41;;;9.09;92.24
72677;BME280;60755;51.374;10.662;2022-12-29T08:35:46;96134.81;;;9.14;91.41
72677;BME280;60755;51.374;10.662;2022-12-29T08:38:13;96131.19;;;9.15;92.80
72677;BME280;60755;51.374;10.662;2022-12-29T08:40:40;96136.94;;;9.17;91.37
72677;BME280;60755;51.374;10.662;2022-12-29T08:43:08;96143.22;;;9.16;92.36
72677;BME280;60755;51.374;10.662;2022-12-29T08:45:34;96136.16;;;9.21;93.32
72677;BME280;60755;51.374;10.662;2022-12-29T08:48:03;96130.34;;;9.09;95.13
72677;BME280;60755;51.374;10.662;2022-12-29T08:50:30;96136.16;;;9.16;95.27
72677;BME280;60755;51.374;10.662;2022-12-29T08:52:57;96129.03;;;9.07;96.70
72677;BME280;60755;51.374;10.662;2022-12-29T08:55:24;96121.38;;;9.05;96.78
72677;BME280;60755;51.374;10.662;2022-12-29T08:57:52;96130.31;;;9.04;97.95
72677;BME280;60755;51.374;10.662;2022-12-29T09:00:20;96126.78;;;8.88;98.47
72677;BME280;60755;51.374;10.662;2022-12-29T09:02:47;96137.88;;;9.01;98.44
72677;BME280;60755;51.374;10.662;2022-12-29T09:05:16;96129.03;;;9.07;98.43
72677;BME280;60755;51.374;10.662;2022-12-29T09:07:43;96144.38;;;8.93;100.00
72677;BME280;60755;51.374;10.662;2022-12-29T09:10:10;96137.25;;;8.88;100.00
72677;BME280;60755;51.374;10.662;2022-12-29T09:12:37;96134.38;;;8.90;99.60
72677;BME280;60755;51.374;10.662;2022-12-29T09:15:05;96137.97;;;8.79;100.00
72677;BME280;60755;51.374;10.662;2022-12-29T09:17:32;96136.94;;;8.80;100.00
72677;BME280;60755;51.374;10.662;2022-12-29T09:20:09;96139.88;;;8.83;99.10
72677;BME280;60755;51.374;10.662;2022-12-29T09:22:38;96139.41;;;8.91;99.01
72677;BME280;60755;51.374;10.662;2022-12-29T09:25:05;96136.25;;;8.94;98.46
72677;BME280;60755;51.374;10.662;2022-12-29T09:27:32;96125.06;;;9.04;97.07
72677;BME280;60755;51.374;10.662;2022-12-29T09:29:59;96130.59;;;9.08;96.98
72677;BME280;60755;51.374;10.662;2022-12-29T09:32:26;96135.84;;;9.08;95.92
72677;BME280;60755;51.374;10.662;2022-12-29T09:34:53;96122.78;;;9.18;95.71
72677;BME280;60755;51.374;10.662;2022-12-29T09:37:20;96140.88;;;9.19;94.12
72677;BME280;60755;51.374;10.662;2022-12-29T09:39:48;96144.59;;;9.23;94.38
72677;BME280;60755;51.374;10.662;2022-12-29T09:42:19;96146.44;;;9.23;94.62
72677;BME280;60755;51.374;10.662;2022-12-29T09:44:56;96139.41;;;9.34;93.43
72677;BME280;60755;51.374;10.662;2022-12-29T09:47:26;96150.59;;;9.19;95.45
72677;BME280;60755;51.374;10.662;2022-12-29T09:49:56;96154.00;;;9.19;95.95
72677;BME280;60755;51.374;10.662;2022-12-29T09:52:29;96170.50;;;9.20;95.55
72677;BME280;60755;51.374;10.662;2022-12-29T09:55:00;96175.16;;;9.08;99.14
72677;BME280;60755;51.374;10.662;2022-12-29T09:57:32;96177.19;;;9.01;100.00
72677;BME280;60755;51.374;10.662;2022-12-29T10:00:03;96167.19;;;8.97;100.00
72677;BME280;60755;51.374;10.662;2022-12-29T10:02:39;96163.63;;;9.09;100.00
72677;BME280;60755;51.374;10.662;2022-12-29T10:05:20;96178.91;;;9.22;100.00
72677;BME280;60755;51.374;10.662;2022-12-29T10:07:59;96173.38;;;9.18;100.00
72677;BME280;60755;51.374;10.662;2022-12-29T10:10:35;96185.91;;;9.11;100.00
72677;BME280;60755;51.374;10.662;2022-12-29T10:13:15;96188.91;;;9.25;100.00
72677;BME280;60755;51.374;10.662;2022-12-29T10:15:55;96184.69;;;9.24;99.00
72677;BME280;60755;51.374;10.662;2022-12-29T10:19:02;96187.16;;;9.41;99.07
72677;BME280;60755;51.374;10.662;2022-12-29T10:21:43;96184.13;;;9.22;99.59
72677;BME280;60755;51.374;10.662;2022-12-29T10:24:15;96196.94;;;9.13;99.50
72677;BME280;60755;51.374;10.662;2022-12-29T10:26:46;96190.09;;;9.12;99.48
72677;BME280;60755;51.374;10.662;2022-12-29T10:29:16;96196.72;;;9.20;99.84
72677;BME280;60755;51.374;10.662;2022-12-29T10:31:48;96193.84;;;9.21;99.90
72677;BME280;60755;51.374;10.662;2022-12-29T10:34:20;96190.06;;;9.39;98.24
72677;BME280;60755;51.374;10.662;2022-12-29T10:36:49;96183.19;;;9.38;96.59
72677;BME280;60755;51.374;10.662;2022-12-29T10:39:21;96189.31;;;9.49;96.18
72677;BME280;60755;51.374;10.662;2022-12-29T10:41:54;96190.91;;;9.50;95.08
72677;BME280;60755;51.374;10.662;2022-12-29T10:44:24;96190.94;;;9.60;93.47
72677;BME280;60755;51.374;10.662;2022-12-29T10:46:57;96183.06;;;9.60;92.69
72677;BME280;60755;51.374;10.662;2022-12-29T10:49:26;96183.38;;;9.64;92.81
72677;BME280;60755;51.374;10.662;2022-12-29T10:51:57;96187.91;;;9.84;91.88
72677;BME280;60755;51.374;10.662;2022-12-29T10:54:27;96176.59;;;9.78;90.86
72677;BME280;60755;51.374;10.662;2022-12-29T10:57:03;96185.97;;;9.59;91.05
72677;BME280;60755;51.374;10.662;2022-12-29T10:59:33;96187.63;;;9.75;91.22
72677;BME280;60755;51.374;10.662;2022-12-29T11:02:22;96198.44;;;9.89;90.77
72677;BME280;60755;51.374;10.662;2022-12-29T11:04:58;96194.78;;;9.90;89.51
72677;BME280;60755;51.374;10.662;2022-12-29T11:07:29;96204.16;;;9.75;89.46
72677;BME280;60755;51.374;10.662;2022-12-29T11:10:16;96198.41;;;9.78;88.79
72677;BME280;60755;51.374;10.662;2022-12-29T11:12:55;96216.16;;;9.66;88.87
72677;BME280;60755;51.374;10.662;2022-12-29T11:15:23;96210.66;;;9.63;88.98
72677;BME280;60755;51.374;10.662;2022-12-29T11:17:52;96205.84;;;9.49;88.21
72677;BME280;60755;51.374;10.662;2022-12-29T11:20:27;96204.84;;;9.56;89.08
72677;BME280;60755;51.374;10.662;2022-12-29T11:22:55;96199.56;;;9.50;89.51
72677;BME280;60755;51.374;10.662;2022-12-29T11:25:22;96190.06;;;9.44;90.43
72677;BME280;60755;51.374;10.662;2022-12-29T11:27:57;96191.72;;;9.56;89.13
72677;BME280;60755;51.374;10.662;2022-12-29T11:30:26;96195.50;;;9.75;88.21
72677;BME280;60755;51.374;10.662;2022-12-29T11:32:55;96190.81;;;9.82;86.91
72677;BME280;60755;51.374;10.662;2022-12-29T11:35:34;96176.63;;;9.83;85.96
72677;BME280;60755;51.374;10.662;2022-12-29T11:38:02;96176.59;;;9.78;85.21
72677;BME280;60755;51.374;10.662;2022-12-29T11:40:31;96188.63;;;9.69;85.82
72677;BME280;60755;51.374;10.662;2022-12-29T11:43:02;96189.69;;;9.68;85.48
72677;BME280;60755;51.374;10.662;2022-12-29T11:45:33;96185.59;;;9.92;84.39
72677;BME280;60755;51.374;10.662;2022-12-29T11:48:06;96179.56;;;9.87;84.23
72677;BME280;60755;51.374;10.662;2022-12-29T11:50:36;96181.91;;;9.93;83.27
72677;BME280;60755;51.374;10.662;2022-12-29T11:53:07;96190.88;;;9.97;82.82
72677;BME280;60755;51.374;10.662;2022-12-29T11:55:50;96196.69;;;10.04;83.34
72677;BME280;60755;51.374;10.662;2022-12-29T11:58:19;96178.28;;;9.99;81.86
72677;BME280;60755;51.374;10.662;2022-12-29T12:00:48;96195.59;;;10.00;81.01
72677;BME280;60755;51.374;10.662;2022-12-29T12:03:19;96165.91;;;9.90;81.62
72677;BME280;60755;51.374;10.662;2022-12-29T12:05:51;96194.44;;;9.71;81.69
72677;BME280;60755;51.374;10.662;2022-12-29T12:08:30;96190.84;;;9.87;81.35
72677;BME280;60755;51.374;10.662;2022-12-29T12:11:04;96194.00;;;9.89;79.84
72677;BME280;60755;51.374;10.662;2022-12-29T12:13:37;96183.69;;;9.77;80.39
72677;BME280;60755;51.374;10.662;2022-12-29T12:16:09;96195.03;;;9.88;81.43
72677;BME280;60755;51.374;10.662;2022-12-29T12:18:42;96179.84;;;10.00;80.20
72677;BME280;60755;51.374;10.662;2022-12-29T12:21:21;96178.81;;;10.01;80.72
72677;BME280;60755;51.374;10.662;2022-12-29T12:23:59;96190.31;;;9.90;80.79
72677;BME280;60755;51.374;10.662;2022-12-29T12:26:32;96194.53;;;9.96;80.93
72677;BME280;60755;51.374;10.662;2022-12-29T12:29:08;96185.69;;;10.18;78.24
72677;BME280;60755;51.374;10.662;2022-12-29T12:31:44;96192.22;;;10.05;78.69
72677;BME280;60755;51.374;10.662;2022-12-29T12:34:17;96192.53;;;10.19;79.21
72677;BME280;60755;51.374;10.662;2022-12-29T12:40:17;96202.09;;;10.45;77.82
72677;BME280;60755;51.374;10.662;2022-12-29T12:42:57;96212.53;;;10.25;76.65
72677;BME280;60755;51.374;10.662;2022-12-29T12:45:39;96191.28;;;10.42;75.07
72677;BME280;60755;51.374;10.662;2022-12-29T12:48:22;96202.63;;;10.57;75.04
72677;BME280;60755;51.374;10.662;2022-12-29T12:51:00;96202.31;;;10.28;75.84
72677;BME280;60755;51.374;10.662;2022-12-29T12:53:38;96188.63;;;10.26;75.70
72677;BME280;60755;51.374;10.662;2022-12-29T12:56:38;96195.69;;;10.21;75.26
72677;BME280;60755;51.374;10.662;2022-12-29T12:59:18;96196.13;;;9.97;76.98
72677;BME280;60755;51.374;10.662;2022-12-29T13:01:55;96199.84;;;10.06;77.45
72677;BME280;60755;51.374;10.662;2022-12-29T13:04:48;96193.28;;;10.14;77.05
72677;BME280;60755;51.374;10.662;2022-12-29T13:07:28;96205.59;;;10.08;76.08
72677;BME280;60755;51.374;10.662;2022-12-29T13:10:12;96207.75;;;10.12;76.72
72677;BME280;60755;51.374;10.662;2022-12-29T13:12:49;96195.06;;;9.98;77.79
72677;BME280;60755;51.374;10.662;2022-12-29T13:15:38;96208.09;;;9.78;77.44
72677;BME280;60755;51.374;10.662;2022-12-29T13:18:19;96212.81;;;9.76;78.26
72677;BME280;60755;51.374;10.662;2022-12-29T13:20:53;96215.50;;;9.91;78.22
72677;BME280;60755;51.374;10.662;2022-12-29T13:23:26;96212.06;;;9.80;76.24
72677;BME280;60755;51.374;10.662;2022-12-29T13:26:05;96214.91;;;9.74;76.75
72677;BME280;60755;51.374;10.662;2022-12-29T13:31:29;96218.25;;;9.64;77.47
72677;BME280;60755;51.374;10.662;2022-12-29T13:34:10;96229.25;;;9.61;77.21